55.6°F
Current conditions from King Hill
Updated every 5 minutes
 
  Tuesday July 29, 2014

Station Historical Data
Daily Summary for July 28, 2011 Units:  Both    English   Metric
« Previous Day
Next Day »
Daily Weekly Monthly Yearly Custom
  High: Low: Average:
Temperature: 84.4 °F /  29.1 °C 53.4 °F /  11.9 °C 68.8 °F /  20.4 °C
Dew Point: 67.7 °F /  19.8 °C 52.3 °F /  11.3 °C 58.7 °F /  14.8 °C
Humidity: 97% 38% 73%
Wind Speed: 4.0mph /  6.4km/h - 1.4mph /  2.3km/h
Wind Gust: 9.0mph /  14.5km/h - -
Wind- - SW
Pressure: 30.03 in /  1016.8 hPa 29.91 in /  1012.8 hPa -
Precipitation: 0.00 in /  0 mm    
Historical Graphs
 
 
Tabular Data for July 28, 2011
Time Temperature Dew Point Pressure Wind Wind Speed Wind Gust Humidity Daily Rainfall
00:00 56.1 °F /  13.4 °C 54.4 °F /  12.4 °C 29.97in /  1014.8hPa Calm     94% 0.00in /  0mm
00:05 55.9 °F /  13.3 °C 54.2 °F /  12.3 °C 29.97in /  1014.8hPa Calm     94% 0.00in /  0mm
00:10 55.9 °F /  13.3 °C 54.2 °F /  12.3 °C 29.97in /  1014.8hPa Calm     94% 0.00in /  0mm
00:15 55.9 °F /  13.3 °C 54.2 °F /  12.3 °C 29.97in /  1014.8hPa Calm     94% 0.00in /  0mm
00:20 55.9 °F /  13.3 °C 54.2 °F /  12.3 °C 29.97in /  1014.8hPa Calm     94% 0.00in /  0mm
00:25 55.8 °F /  13.2 °C 54.1 °F /  12.3 °C 29.98in /  1015.1hPa Calm     94% 0.00in /  0mm
00:30 55.7 °F /  13.2 °C 54.0 °F /  12.2 °C 29.98in /  1015.1hPa Calm     94% 0.00in /  0mm
00:35 55.8 °F /  13.2 °C 54.4 °F /  12.4 °C 29.98in /  1015.1hPa Calm     95% 0.00in /  0mm
00:40 55.8 °F /  13.2 °C 54.4 °F /  12.4 °C 29.98in /  1015.1hPa Calm     95% 0.00in /  0mm
00:45 55.7 °F /  13.2 °C 54.3 °F /  12.4 °C 29.98in /  1015.1hPa Calm     95% 0.00in /  0mm
00:50 55.5 °F /  13.1 °C 53.8 °F /  12.1 °C 29.98in /  1015.1hPa Calm   1.0mph /  1.6km/h 94% 0.00in /  0mm
00:55 55.4 °F /  13 °C 53.7 °F /  12.1 °C 29.98in /  1015.1hPa Calm   1.0mph /  1.6km/h 94% 0.00in /  0mm
01:00 55.3 °F /  12.9 °C 53.6 °F /  12 °C 29.98in /  1015.1hPa Calm     94% 0.00in /  0mm
01:05 55.1 °F /  12.8 °C 53.7 °F /  12.1 °C 29.98in /  1015.1hPa Calm     95% 0.00in /  0mm
01:10 55.1 °F /  12.8 °C 53.7 °F /  12.1 °C 29.98in /  1015.1hPa Calm     95% 0.00in /  0mm
01:15 55.0 °F /  12.8 °C 53.6 °F /  12 °C 29.98in /  1015.1hPa Calm     95% 0.00in /  0mm
01:20 55.0 °F /  12.8 °C 53.6 °F /  12 °C 29.98in /  1015.1hPa Calm     95% 0.00in /  0mm
01:25 55.1 °F /  12.8 °C 53.7 °F /  12.1 °C 29.98in /  1015.1hPa Calm     95% 0.00in /  0mm
01:30 55.0 °F /  12.8 °C 53.6 °F /  12 °C 29.98in /  1015.1hPa Calm     95% 0.00in /  0mm
01:35 54.9 °F /  12.7 °C 53.5 °F /  11.9 °C 29.98in /  1015.1hPa Calm     95% 0.00in /  0mm
01:40 54.8 °F /  12.7 °C 53.4 °F /  11.9 °C 29.98in /  1015.1hPa Calm     95% 0.00in /  0mm
01:45 54.6 °F /  12.6 °C 53.2 °F /  11.8 °C 29.98in /  1015.1hPa Calm     95% 0.00in /  0mm
01:50 54.4 °F /  12.4 °C 53.0 °F /  11.7 °C 29.98in /  1015.1hPa Calm     95% 0.00in /  0mm
01:55 54.5 °F /  12.5 °C 53.1 °F /  11.7 °C 29.97in /  1014.8hPa Calm     95% 0.00in /  0mm
02:00 54.6 °F /  12.6 °C 53.2 °F /  11.8 °C 29.97in /  1014.8hPa Calm     95% 0.00in /  0mm
02:05 54.8 °F /  12.7 °C 53.4 °F /  11.9 °C 29.97in /  1014.8hPa Calm     95% 0.00in /  0mm
02:10 54.8 °F /  12.7 °C 53.4 °F /  11.9 °C 29.97in /  1014.8hPa Calm     95% 0.00in /  0mm
02:15 54.8 °F /  12.7 °C 53.4 °F /  11.9 °C 29.98in /  1015.1hPa Calm     95% 0.00in /  0mm
02:20 54.8 °F /  12.7 °C 53.4 °F /  11.9 °C 29.97in /  1014.8hPa Calm     95% 0.00in /  0mm
02:25 54.6 °F /  12.6 °C 53.2 °F /  11.8 °C 29.97in /  1014.8hPa Calm     95% 0.00in /  0mm
02:30 54.5 °F /  12.5 °C 53.1 °F /  11.7 °C 29.97in /  1014.8hPa Calm     95% 0.00in /  0mm
02:35 54.5 °F /  12.5 °C 53.1 °F /  11.7 °C 29.97in /  1014.8hPa Calm     95% 0.00in /  0mm
02:40 54.4 °F /  12.4 °C 53.0 °F /  11.7 °C 29.97in /  1014.8hPa Calm     95% 0.00in /  0mm
02:45 54.3 °F /  12.4 °C 52.9 °F /  11.6 °C 29.98in /  1015.1hPa Calm     95% 0.00in /  0mm
02:50 54.2 °F /  12.3 °C 52.8 °F /  11.6 °C 29.97in /  1014.8hPa Calm     95% 0.00in /  0mm
02:55 54.2 °F /  12.3 °C 52.8 °F /  11.6 °C 29.98in /  1015.1hPa Calm     95% 0.00in /  0mm
03:00 54.2 °F /  12.3 °C 52.8 °F /  11.6 °C 29.98in /  1015.1hPa Calm     95% 0.00in /  0mm
03:05 54.1 °F /  12.3 °C 52.7 °F /  11.5 °C 29.97in /  1014.8hPa Calm     95% 0.00in /  0mm
03:10 54.1 °F /  12.3 °C 52.7 °F /  11.5 °C 29.97in /  1014.8hPa Calm     95% 0.00in /  0mm
03:15 54.2 °F /  12.3 °C 52.8 °F /  11.6 °C 29.97in /  1014.8hPa Calm     95% 0.00in /  0mm
03:20 54.4 °F /  12.4 °C 53.0 °F /  11.7 °C 29.97in /  1014.8hPa Calm     95% 0.00in /  0mm
03:25 54.4 °F /  12.4 °C 53.0 °F /  11.7 °C 29.97in /  1014.8hPa Calm     95% 0.00in /  0mm
03:30 54.3 °F /  12.4 °C 52.9 °F /  11.6 °C 29.97in /  1014.8hPa Calm     95% 0.00in /  0mm
03:35 54.2 °F /  12.3 °C 52.8 °F /  11.6 °C 29.97in /  1014.8hPa Calm     95% 0.00in /  0mm
03:45 54.2 °F /  12.3 °C 52.8 °F /  11.6 °C 29.98in /  1015.1hPa Calm     95% 0.00in /  0mm
03:50 54.1 °F /  12.3 °C 52.7 °F /  11.5 °C 29.98in /  1015.1hPa Calm     95% 0.00in /  0mm
03:55 54.2 °F /  12.3 °C 52.8 °F /  11.6 °C 29.98in /  1015.1hPa Calm     95% 0.00in /  0mm
04:00 54.1 °F /  12.3 °C 52.7 °F /  11.5 °C 29.98in /  1015.1hPa Calm     95% 0.00in /  0mm
04:05 54.2 °F /  12.3 °C 53.1 °F /  11.7 °C 29.98in /  1015.1hPa Calm     96% 0.00in /  0mm
04:10 54.2 °F /  12.3 °C 53.1 °F /  11.7 °C 29.98in /  1015.1hPa Calm     96% 0.00in /  0mm
04:15 54.1 °F /  12.3 °C 53.0 °F /  11.7 °C 29.98in /  1015.1hPa Calm     96% 0.00in /  0mm
04:20 54.0 °F /  12.2 °C 52.9 °F /  11.6 °C 29.98in /  1015.1hPa Calm     96% 0.00in /  0mm
04:25 53.9 °F /  12.2 °C 52.8 °F /  11.6 °C 29.98in /  1015.1hPa Calm     96% 0.00in /  0mm
04:30 53.8 °F /  12.1 °C 52.4 °F /  11.3 °C 29.99in /  1015.5hPa Calm     95% 0.00in /  0mm
04:35 53.7 °F /  12.1 °C 52.3 °F /  11.3 °C 29.99in /  1015.5hPa Calm     95% 0.00in /  0mm
04:40 53.7 °F /  12.1 °C 52.3 °F /  11.3 °C 29.99in /  1015.5hPa Calm     95% 0.00in /  0mm
04:50 53.7 °F /  12.1 °C 52.3 °F /  11.3 °C 30.00in /  1015.8hPa Calm     95% 0.00in /  0mm
04:55 53.8 °F /  12.1 °C 52.7 °F /  11.5 °C 30.00in /  1015.8hPa Calm     96% 0.00in /  0mm
05:00 53.7 °F /  12.1 °C 52.6 °F /  11.4 °C 30.00in /  1015.8hPa Calm     96% 0.00in /  0mm
05:05 53.5 °F /  11.9 °C 52.4 °F /  11.3 °C 30.00in /  1015.8hPa Calm     96% 0.00in /  0mm
05:15 53.4 °F /  11.9 °C 52.3 °F /  11.3 °C 30.01in /  1016.1hPa Calm     96% 0.00in /  0mm
05:20 53.5 °F /  11.9 °C 52.4 °F /  11.3 °C 30.01in /  1016.1hPa Calm     96% 0.00in /  0mm
05:25 53.5 °F /  11.9 °C 52.4 °F /  11.3 °C 30.01in /  1016.1hPa Calm     96% 0.00in /  0mm
05:30 53.5 °F /  11.9 °C 52.4 °F /  11.3 °C 30.01in /  1016.1hPa Calm     96% 0.00in /  0mm
05:35 53.6 °F /  12 °C 52.5 °F /  11.4 °C 30.01in /  1016.1hPa Calm     96% 0.00in /  0mm
05:40 53.7 °F /  12.1 °C 52.6 °F /  11.4 °C 30.01in /  1016.1hPa Calm     96% 0.00in /  0mm
05:45 53.7 °F /  12.1 °C 52.6 °F /  11.4 °C 30.01in /  1016.1hPa Calm     96% 0.00in /  0mm
05:50 53.7 °F /  12.1 °C 52.6 °F /  11.4 °C 30.01in /  1016.1hPa Calm     96% 0.00in /  0mm
05:55 53.8 °F /  12.1 °C 52.7 °F /  11.5 °C 30.01in /  1016.1hPa Calm     96% 0.00in /  0mm
06:00 53.8 °F /  12.1 °C 52.7 °F /  11.5 °C 30.01in /  1016.1hPa Calm     96% 0.00in /  0mm
06:05 53.9 °F /  12.2 °C 52.8 °F /  11.6 °C 30.01in /  1016.1hPa Calm     96% 0.00in /  0mm
06:10 53.9 °F /  12.2 °C 52.8 °F /  11.6 °C 30.01in /  1016.1hPa Calm     96% 0.00in /  0mm
06:20 54.2 °F /  12.3 °C 53.1 °F /  11.7 °C 30.01in /  1016.1hPa Calm     96% 0.00in /  0mm
06:25 54.3 °F /  12.4 °C 53.2 °F /  11.8 °C 30.01in /  1016.1hPa Calm     96% 0.00in /  0mm
06:30 54.5 °F /  12.5 °C 53.4 °F /  11.9 °C 30.01in /  1016.1hPa Calm     96% 0.00in /  0mm
06:35 54.9 °F /  12.7 °C 53.8 °F /  12.1 °C 30.01in /  1016.1hPa Calm     96% 0.00in /  0mm
06:40 55.0 °F /  12.8 °C 53.9 °F /  12.2 °C 30.02in /  1016.5hPa Calm     96% 0.00in /  0mm
06:50 55.5 °F /  13.1 °C 54.4 °F /  12.4 °C 30.02in /  1016.5hPa Calm     96% 0.00in /  0mm
06:55 55.6 °F /  13.1 °C 54.5 °F /  12.5 °C 30.02in /  1016.5hPa Calm     96% 0.00in /  0mm
07:00 55.8 °F /  13.2 °C 54.7 °F /  12.6 °C 30.02in /  1016.5hPa Calm     96% 0.00in /  0mm
07:05 56.3 °F /  13.5 °C 55.2 °F /  12.9 °C 30.02in /  1016.5hPa Calm     96% 0.00in /  0mm
07:10 56.8 °F /  13.8 °C 55.7 °F /  13.2 °C 30.02in /  1016.5hPa Calm     96% 0.00in /  0mm
07:15 57.3 °F /  14.1 °C 56.2 °F /  13.4 °C 30.03in /  1016.8hPa Calm     96% 0.00in /  0mm
07:20 57.9 °F /  14.4 °C 56.8 °F /  13.8 °C 30.03in /  1016.8hPa Calm     96% 0.00in /  0mm
07:30 59.0 °F /  15 °C 57.9 °F /  14.4 °C 30.02in /  1016.5hPa Calm     96% 0.00in /  0mm
07:35 59.4 °F /  15.2 °C 58.5 °F /  14.7 °C 30.02in /  1016.5hPa Calm     97% 0.00in /  0mm
07:40 59.9 °F /  15.5 °C 58.8 °F /  14.9 °C 30.02in /  1016.5hPa Calm     96% 0.00in /  0mm
07:45 60.2 °F /  15.7 °C 59.3 °F /  15.2 °C 30.02in /  1016.5hPa Calm     97% 0.00in /  0mm
07:50 60.6 °F /  15.9 °C 59.5 °F /  15.3 °C 30.02in /  1016.5hPa Calm   1.0mph /  1.6km/h 96% 0.00in /  0mm
07:55 61.3 °F /  16.3 °C 60.4 °F /  15.8 °C 30.03in /  1016.8hPa Calm   1.0mph /  1.6km/h 97% 0.00in /  0mm
08:00 61.7 °F /  16.5 °C 60.8 °F /  16 °C 30.03in /  1016.8hPa Calm   1.0mph /  1.6km/h 97% 0.00in /  0mm
08:05 61.8 °F /  16.6 °C 60.9 °F /  16.1 °C 30.03in /  1016.8hPa Calm   1.0mph /  1.6km/h 97% 0.00in /  0mm
08:10 62.2 °F /  16.8 °C 61.3 °F /  16.3 °C 30.03in /  1016.8hPa Calm   4.0mph /  6.4km/h 97% 0.00in /  0mm
08:15 62.5 °F /  16.9 °C 61.6 °F /  16.4 °C 30.03in /  1016.8hPa SSW 1.0mph /  1.6km/h 5.0mph /  8km/h 97% 0.00in /  0mm
08:20 62.3 °F /  16.8 °C 61.4 °F /  16.3 °C 30.03in /  1016.8hPa Calm   5.0mph /  8km/h 97% 0.00in /  0mm
08:30 63.5 °F /  17.5 °C 62.6 °F /  17 °C 30.03in /  1016.8hPa Calm   5.0mph /  8km/h 97% 0.00in /  0mm
08:40 65.1 °F /  18.4 °C 63.0 °F /  17.2 °C 30.03in /  1016.8hPa SSW 1.0mph /  1.6km/h 5.0mph /  8km/h 93% 0.00in /  0mm
08:45 66.3 °F /  19.1 °C 63.9 °F /  17.7 °C 30.03in /  1016.8hPa Calm   4.0mph /  6.4km/h 92% 0.00in /  0mm
08:50 67.6 °F /  19.8 °C 63.6 °F /  17.6 °C 30.02in /  1016.5hPa Calm   5.0mph /  8km/h 87% 0.00in /  0mm
08:55 68.6 °F /  20.3 °C 62.9 °F /  17.2 °C 30.03in /  1016.8hPa SSW 1.0mph /  1.6km/h 5.0mph /  8km/h 82% 0.00in /  0mm
09:00 69.4 °F /  20.8 °C 62.6 °F /  17 °C 30.02in /  1016.5hPa SSW 1.0mph /  1.6km/h 5.0mph /  8km/h 79% 0.00in /  0mm
09:05 70.0 °F /  21.1 °C 63.6 °F /  17.6 °C 30.02in /  1016.5hPa Calm   6.0mph /  9.7km/h 80% 0.00in /  0mm
09:10 70.6 °F /  21.4 °C 63.0 °F /  17.2 °C 30.03in /  1016.8hPa SW 1.0mph /  1.6km/h 6.0mph /  9.7km/h 77% 0.00in /  0mm
09:15 71.0 °F /  21.7 °C 64.2 °F /  17.9 °C 30.02in /  1016.5hPa Calm   5.0mph /  8km/h 79% 0.00in /  0mm
09:20 71.0 °F /  21.7 °C 62.7 °F /  17.1 °C 30.02in /  1016.5hPa Calm   1.0mph /  1.6km/h 75% 0.00in /  0mm
09:25 70.9 °F /  21.6 °C 62.6 °F /  17 °C 30.02in /  1016.5hPa Calm   1.0mph /  1.6km/h 75% 0.00in /  0mm
09:30 71.2 °F /  21.8 °C 63.6 °F /  17.6 °C 30.02in /  1016.5hPa Calm   1.0mph /  1.6km/h 77% 0.00in /  0mm
09:35 71.2 °F /  21.8 °C 63.3 °F /  17.4 °C 30.02in /  1016.5hPa Calm   1.0mph /  1.6km/h 76% 0.00in /  0mm
09:40 71.4 °F /  21.9 °C 63.4 °F /  17.4 °C 30.02in /  1016.5hPa Calm   1.0mph /  1.6km/h 76% 0.00in /  0mm
09:45 72.0 °F /  22.2 °C 62.9 °F /  17.2 °C 30.02in /  1016.5hPa SW 1.0mph /  1.6km/h 5.0mph /  8km/h 73% 0.00in /  0mm
09:50 72.9 °F /  22.7 °C 63.7 °F /  17.6 °C 30.02in /  1016.5hPa SW 1.0mph /  1.6km/h 5.0mph /  8km/h 73% 0.00in /  0mm
09:55 73.8 °F /  23.2 °C 63.0 °F /  17.2 °C 30.02in /  1016.5hPa Calm   5.0mph /  8km/h 69% 0.00in /  0mm
10:00 74.9 °F /  23.8 °C 64.5 °F /  18.1 °C 30.02in /  1016.5hPa Calm   1.0mph /  1.6km/h 70% 0.00in /  0mm
10:05 75.2 °F /  24 °C 63.5 °F /  17.5 °C 30.02in /  1016.5hPa Calm   5.0mph /  8km/h 67% 0.00in /  0mm
10:10 75.4 °F /  24.1 °C 63.3 °F /  17.4 °C 30.01in /  1016.1hPa Calm   5.0mph /  8km/h 66% 0.00in /  0mm
10:15 75.7 °F /  24.3 °C 63.1 °F /  17.3 °C 30.01in /  1016.1hPa Calm   4.0mph /  6.4km/h 65% 0.00in /  0mm
10:20 75.6 °F /  24.2 °C 63.9 °F /  17.7 °C 30.01in /  1016.1hPa Calm   5.0mph /  8km/h 67% 0.00in /  0mm
10:25 75.8 °F /  24.3 °C 64.1 °F /  17.8 °C 30.01in /  1016.1hPa Calm   5.0mph /  8km/h 67% 0.00in /  0mm
10:30 76.2 °F /  24.6 °C 64.9 °F /  18.3 °C 30.01in /  1016.1hPa Calm   4.0mph /  6.4km/h 68% 0.00in /  0mm
10:35 76.4 °F /  24.7 °C 64.6 °F /  18.1 °C 30.02in /  1016.5hPa Calm   4.0mph /  6.4km/h 67% 0.00in /  0mm
10:40 76.8 °F /  24.9 °C 65.0 °F /  18.3 °C 30.02in /  1016.5hPa Calm   4.0mph /  6.4km/h 67% 0.00in /  0mm
10:45 76.8 °F /  24.9 °C 64.6 °F /  18.1 °C 30.02in /  1016.5hPa Calm   6.0mph /  9.7km/h 66% 0.00in /  0mm
10:50 77.1 °F /  25.1 °C 64.4 °F /  18 °C 30.01in /  1016.1hPa SW 1.0mph /  1.6km/h 6.0mph /  9.7km/h 65% 0.00in /  0mm
10:55 77.2 °F /  25.1 °C 63.6 °F /  17.6 °C 30.01in /  1016.1hPa SW 2.0mph /  3.2km/h 5.0mph /  8km/h 63% 0.00in /  0mm
11:00 77.5 °F /  25.3 °C 66.5 °F /  19.2 °C 30.02in /  1016.5hPa Calm   5.0mph /  8km/h 69% 0.00in /  0mm
11:05 77.9 °F /  25.5 °C 66.1 °F /  18.9 °C 30.02in /  1016.5hPa SSW 2.0mph /  3.2km/h 7.0mph /  11.3km/h 67% 0.00in /  0mm
11:15 78.7 °F /  25.9 °C 64.6 °F /  18.1 °C 30.01in /  1016.1hPa SSW 2.0mph /  3.2km/h 6.0mph /  9.7km/h 62% 0.00in /  0mm
11:20 78.4 °F /  25.8 °C 65.2 °F /  18.4 °C 30.01in /  1016.1hPa WSW 2.0mph /  3.2km/h 6.0mph /  9.7km/h 64% 0.00in /  0mm
11:25 78.5 °F /  25.8 °C 65.8 °F /  18.8 °C 30.01in /  1016.1hPa WNW 1.0mph /  1.6km/h 6.0mph /  9.7km/h 65% 0.00in /  0mm
11:30 78.3 °F /  25.7 °C 64.7 °F /  18.2 °C 30.01in /  1016.1hPa WNW 4.0mph /  6.4km/h 7.0mph /  11.3km/h 63% 0.00in /  0mm
11:35 78.0 °F /  25.6 °C 64.4 °F /  18 °C 30.01in /  1016.1hPa WNW 1.0mph /  1.6km/h 7.0mph /  11.3km/h 63% 0.00in /  0mm
11:40 78.2 °F /  25.7 °C 65.5 °F /  18.6 °C 30.00in /  1015.8hPa Calm   4.0mph /  6.4km/h 65% 0.00in /  0mm
11:45 78.7 °F /  25.9 °C 66.0 °F /  18.9 °C 30.00in /  1015.8hPa Calm   5.0mph /  8km/h 65% 0.00in /  0mm
11:55 79.1 °F /  26.2 °C 64.5 °F /  18.1 °C 30.00in /  1015.8hPa Calm   5.0mph /  8km/h 61% 0.00in /  0mm
12:00 78.7 °F /  25.9 °C 64.1 °F /  17.8 °C 30.00in /  1015.8hPa Calm   1.0mph /  1.6km/h 61% 0.00in /  0mm
12:05 79.1 °F /  26.2 °C 67.2 °F /  19.6 °C 30.00in /  1015.8hPa West 1.0mph /  1.6km/h 5.0mph /  8km/h 67% 0.00in /  0mm
12:10 78.7 °F /  25.9 °C 64.6 °F /  18.1 °C 30.00in /  1015.8hPa Calm   7.0mph /  11.3km/h 62% 0.00in /  0mm
12:15 78.7 °F /  25.9 °C 66.4 °F /  19.1 °C 29.99in /  1015.5hPa Calm   7.0mph /  11.3km/h 66% 0.00in /  0mm
12:20 78.9 °F /  26.1 °C 65.3 °F /  18.5 °C 30.00in /  1015.8hPa Calm   1.0mph /  1.6km/h 63% 0.00in /  0mm
12:25 78.4 °F /  25.8 °C 65.2 °F /  18.4 °C 30.00in /  1015.8hPa Calm   1.0mph /  1.6km/h 64% 0.00in /  0mm
12:30 78.7 °F /  25.9 °C 67.7 °F /  19.8 °C 30.00in /  1015.8hPa Calm   1.0mph /  1.6km/h 69% 0.00in /  0mm
12:35 79.8 °F /  26.6 °C 65.6 °F /  18.7 °C 30.00in /  1015.8hPa Calm   5.0mph /  8km/h 62% 0.00in /  0mm
12:40 80.2 °F /  26.8 °C 65.1 °F /  18.4 °C 30.00in /  1015.8hPa SSW 4.0mph /  6.4km/h 7.0mph /  11.3km/h 60% 0.00in /  0mm
12:45 80.4 °F /  26.9 °C 66.7 °F /  19.3 °C 30.00in /  1015.8hPa West 3.0mph /  4.8km/h 7.0mph /  11.3km/h 63% 0.00in /  0mm
12:50 80.8 °F /  27.1 °C 65.6 °F /  18.7 °C 30.00in /  1015.8hPa SSW 1.0mph /  1.6km/h 6.0mph /  9.7km/h 60% 0.00in /  0mm
12:55 80.9 °F /  27.2 °C 65.2 °F /  18.4 °C 29.99in /  1015.5hPa South 1.0mph /  1.6km/h 5.0mph /  8km/h 59% 0.00in /  0mm
13:00 81.2 °F /  27.3 °C 64.5 °F /  18.1 °C 29.99in /  1015.5hPa Calm   5.0mph /  8km/h 57% 0.00in /  0mm
13:05 81.2 °F /  27.3 °C 67.0 °F /  19.4 °C 29.99in /  1015.5hPa Calm   6.0mph /  9.7km/h 62% 0.00in /  0mm
13:10 80.8 °F /  27.1 °C 64.7 °F /  18.2 °C 29.99in /  1015.5hPa SW 1.0mph /  1.6km/h 6.0mph /  9.7km/h 58% 0.00in /  0mm
13:15 80.8 °F /  27.1 °C 67.5 °F /  19.7 °C 29.99in /  1015.5hPa SSE 2.0mph /  3.2km/h 5.0mph /  8km/h 64% 0.00in /  0mm
13:20 81.1 °F /  27.3 °C 65.9 °F /  18.8 °C 29.98in /  1015.1hPa Calm   5.0mph /  8km/h 60% 0.00in /  0mm
13:25 81.3 °F /  27.4 °C 63.6 °F /  17.6 °C 29.98in /  1015.1hPa Calm   1.0mph /  1.6km/h 55% 0.00in /  0mm
13:30 81.6 °F /  27.6 °C 65.4 °F /  18.6 °C 29.98in /  1015.1hPa Calm   1.0mph /  1.6km/h 58% 0.00in /  0mm
13:35 81.7 °F /  27.6 °C 64.5 °F /  18.1 °C 29.98in /  1015.1hPa Calm   4.0mph /  6.4km/h 56% 0.00in /  0mm
13:40 82.1 °F /  27.8 °C 65.9 °F /  18.8 °C 29.98in /  1015.1hPa SW 1.0mph /  1.6km/h 5.0mph /  8km/h 58% 0.00in /  0mm
13:45 82.2 °F /  27.9 °C 62.8 °F /  17.1 °C 29.98in /  1015.1hPa ESE 1.0mph /  1.6km/h 5.0mph /  8km/h 52% 0.00in /  0mm
13:50 82.3 °F /  27.9 °C 64.5 °F /  18.1 °C 29.97in /  1014.8hPa Calm   7.0mph /  11.3km/h 55% 0.00in /  0mm
13:55 82.7 °F /  28.2 °C 60.4 °F /  15.8 °C 29.97in /  1014.8hPa WNW 3.0mph /  4.8km/h 7.0mph /  11.3km/h 47% 0.00in /  0mm
14:00 82.4 °F /  28 °C 60.2 °F /  15.7 °C 29.97in /  1014.8hPa SW 4.0mph /  6.4km/h 6.0mph /  9.7km/h 47% 0.00in /  0mm
14:05 82.4 °F /  28 °C 63.0 °F /  17.2 °C 29.97in /  1014.8hPa WSW 1.0mph /  1.6km/h 6.0mph /  9.7km/h 52% 0.00in /  0mm
14:10 82.7 °F /  28.2 °C 61.0 °F /  16.1 °C 29.97in /  1014.8hPa Calm   5.0mph /  8km/h 48% 0.00in /  0mm
14:15 83.0 °F /  28.3 °C 62.5 °F /  16.9 °C 29.97in /  1014.8hPa Calm   5.0mph /  8km/h 50% 0.00in /  0mm
14:20 83.3 °F /  28.5 °C 61.0 °F /  16.1 °C 29.96in /  1014.4hPa West 2.0mph /  3.2km/h 6.0mph /  9.7km/h 47% 0.00in /  0mm
14:25 83.7 °F /  28.7 °C 60.8 °F /  16 °C 29.96in /  1014.4hPa SSW 2.0mph /  3.2km/h 7.0mph /  11.3km/h 46% 0.00in /  0mm
14:30 83.7 °F /  28.7 °C 63.1 °F /  17.3 °C 29.96in /  1014.4hPa Calm   7.0mph /  11.3km/h 50% 0.00in /  0mm
14:35 84.0 °F /  28.9 °C 60.4 °F /  15.8 °C 29.96in /  1014.4hPa South 1.0mph /  1.6km/h 5.0mph /  8km/h 45% 0.00in /  0mm
14:40 84.2 °F /  29 °C 60.0 °F /  15.6 °C 29.96in /  1014.4hPa Calm   5.0mph /  8km/h 44% 0.00in /  0mm
14:45 84.0 °F /  28.9 °C 61.6 °F /  16.4 °C 29.96in /  1014.4hPa Calm   5.0mph /  8km/h 47% 0.00in /  0mm
14:50 83.6 °F /  28.7 °C 58.8 °F /  14.9 °C 29.96in /  1014.4hPa SW 3.0mph /  4.8km/h 7.0mph /  11.3km/h 43% 0.00in /  0mm
15:00 83.6 °F /  28.7 °C 61.3 °F /  16.3 °C 29.95in /  1014.1hPa Calm   4.0mph /  6.4km/h 47% 0.00in /  0mm
15:05 83.8 °F /  28.8 °C 55.5 °F /  13.1 °C 29.96in /  1014.4hPa Calm   2.0mph /  3.2km/h 38% 0.00in /  0mm
15:10 83.5 °F /  28.6 °C 61.8 °F /  16.6 °C 29.95in /  1014.1hPa Calm   5.0mph /  8km/h 48% 0.00in /  0mm
15:15 83.7 °F /  28.7 °C 60.8 °F /  16 °C 29.96in /  1014.4hPa SW 3.0mph /  4.8km/h 6.0mph /  9.7km/h 46% 0.00in /  0mm
15:20 84.1 °F /  28.9 °C 62.3 °F /  16.8 °C 29.96in /  1014.4hPa SW 1.0mph /  1.6km/h 6.0mph /  9.7km/h 48% 0.00in /  0mm
15:30 84.4 °F /  29.1 °C 62.0 °F /  16.7 °C 29.96in /  1014.4hPa Calm   5.0mph /  8km/h 47% 0.00in /  0mm
15:35 84.1 °F /  28.9 °C 59.9 °F /  15.5 °C 29.95in /  1014.1hPa Calm   4.0mph /  6.4km/h 44% 0.00in /  0mm
15:40 84.1 °F /  28.9 °C 61.1 °F /  16.2 °C 29.95in /  1014.1hPa SW 1.0mph /  1.6km/h 5.0mph /  8km/h 46% 0.00in /  0mm
15:45 83.8 °F /  28.8 °C 59.6 °F /  15.3 °C 29.95in /  1014.1hPa Calm   5.0mph /  8km/h 44% 0.00in /  0mm
15:50 83.7 °F /  28.7 °C 60.1 °F /  15.6 °C 29.95in /  1014.1hPa Calm   6.0mph /  9.7km/h 45% 0.00in /  0mm
15:55 83.5 °F /  28.6 °C 61.2 °F /  16.2 °C 29.95in /  1014.1hPa Calm   6.0mph /  9.7km/h 47% 0.00in /  0mm
16:05 83.4 °F /  28.6 °C 61.7 °F /  16.5 °C 29.95in /  1014.1hPa Calm   6.0mph /  9.7km/h 48% 0.00in /  0mm
16:10 83.5 °F /  28.6 °C 62.4 °F /  16.9 °C 29.94in /  1013.8hPa SW 1.0mph /  1.6km/h 5.0mph /  8km/h 49% 0.00in /  0mm
16:15 83.6 °F /  28.7 °C 61.9 °F /  16.6 °C 29.94in /  1013.8hPa SW 1.0mph /  1.6km/h 6.0mph /  9.7km/h 48% 0.00in /  0mm
16:20 83.8 °F /  28.8 °C 60.8 °F /  16 °C 29.94in /  1013.8hPa SW 1.0mph /  1.6km/h 6.0mph /  9.7km/h 46% 0.00in /  0mm
16:25 83.9 °F /  28.8 °C 63.9 °F /  17.7 °C 29.94in /  1013.8hPa SW 2.0mph /  3.2km/h 9.0mph /  14.5km/h 51% 0.00in /  0mm
16:30 83.8 °F /  28.8 °C 63.8 °F /  17.7 °C 29.94in /  1013.8hPa SW 1.0mph /  1.6km/h 9.0mph /  14.5km/h 51% 0.00in /  0mm
16:35 83.9 °F /  28.8 °C 61.5 °F /  16.4 °C 29.94in /  1013.8hPa Calm   5.0mph /  8km/h 47% 0.00in /  0mm
16:40 83.8 °F /  28.8 °C 60.8 °F /  16 °C 29.94in /  1013.8hPa South 1.0mph /  1.6km/h 4.0mph /  6.4km/h 46% 0.00in /  0mm
16:45 83.8 °F /  28.8 °C 61.5 °F /  16.4 °C 29.94in /  1013.8hPa Calm   3.0mph /  4.8km/h 47% 0.00in /  0mm
16:50 84.0 °F /  28.9 °C 59.8 °F /  15.4 °C 29.93in /  1013.4hPa Calm   3.0mph /  4.8km/h 44% 0.00in /  0mm
16:55 84.3 °F /  29.1 °C 61.9 °F /  16.6 °C 29.93in /  1013.4hPa Calm   4.0mph /  6.4km/h 47% 0.00in /  0mm
17:00 84.0 °F /  28.9 °C 60.4 °F /  15.8 °C 29.93in /  1013.4hPa SSW 2.0mph /  3.2km/h 5.0mph /  8km/h 45% 0.00in /  0mm
17:05 83.6 °F /  28.7 °C 60.0 °F /  15.6 °C 29.93in /  1013.4hPa Calm   6.0mph /  9.7km/h 45% 0.00in /  0mm
17:10 83.4 °F /  28.6 °C 61.1 °F /  16.2 °C 29.93in /  1013.4hPa SW 1.0mph /  1.6km/h 6.0mph /  9.7km/h 47% 0.00in /  0mm
17:15 83.2 °F /  28.4 °C 58.4 °F /  14.7 °C 29.93in /  1013.4hPa Calm   6.0mph /  9.7km/h 43% 0.00in /  0mm
17:20 83.4 °F /  28.6 °C 59.2 °F /  15.1 °C 29.93in /  1013.4hPa West 1.0mph /  1.6km/h 7.0mph /  11.3km/h 44% 0.00in /  0mm
17:25 83.6 °F /  28.7 °C 58.1 °F /  14.5 °C 29.93in /  1013.4hPa SSW 1.0mph /  1.6km/h 7.0mph /  11.3km/h 42% 0.00in /  0mm
17:30 83.5 °F /  28.6 °C 58.0 °F /  14.4 °C 29.93in /  1013.4hPa WSW 1.0mph /  1.6km/h 7.0mph /  11.3km/h 42% 0.00in /  0mm
17:35 83.3 °F /  28.5 °C 59.1 °F /  15.1 °C 29.93in /  1013.4hPa Calm   7.0mph /  11.3km/h 44% 0.00in /  0mm
17:45 83.2 °F /  28.4 °C 58.4 °F /  14.7 °C 29.93in /  1013.4hPa Calm   6.0mph /  9.7km/h 43% 0.00in /  0mm
17:50 82.9 °F /  28.3 °C 57.5 °F /  14.2 °C 29.93in /  1013.4hPa SW 1.0mph /  1.6km/h 6.0mph /  9.7km/h 42% 0.00in /  0mm
17:55 82.8 °F /  28.2 °C 58.7 °F /  14.8 °C 29.93in /  1013.4hPa Calm   6.0mph /  9.7km/h 44% 0.00in /  0mm
18:00 82.7 °F /  28.2 °C 58.6 °F /  14.8 °C 29.94in /  1013.8hPa Calm   6.0mph /  9.7km/h 44% 0.00in /  0mm
18:05 82.5 °F /  28.1 °C 57.8 °F /  14.3 °C 29.94in /  1013.8hPa Calm   6.0mph /  9.7km/h 43% 0.00in /  0mm
18:10 82.2 °F /  27.9 °C 58.1 °F /  14.5 °C 29.93in /  1013.4hPa Calm   3.0mph /  4.8km/h 44% 0.00in /  0mm
18:15 82.1 °F /  27.8 °C 58.1 °F /  14.5 °C 29.93in /  1013.4hPa Calm   3.0mph /  4.8km/h 44% 0.00in /  0mm
18:20 82.3 °F /  27.9 °C 60.7 °F /  15.9 °C 29.93in /  1013.4hPa Calm   2.0mph /  3.2km/h 48% 0.00in /  0mm
18:25 82.4 °F /  28 °C 59.0 °F /  15 °C 29.93in /  1013.4hPa SSW 3.0mph /  4.8km/h 8.0mph /  12.9km/h 45% 0.00in /  0mm
18:30 82.1 °F /  27.8 °C 59.3 °F /  15.2 °C 29.93in /  1013.4hPa SW 1.0mph /  1.6km/h 8.0mph /  12.9km/h 46% 0.00in /  0mm
18:35 81.6 °F /  27.6 °C 58.2 °F /  14.6 °C 29.94in /  1013.8hPa SSW 1.0mph /  1.6km/h 6.0mph /  9.7km/h 45% 0.00in /  0mm
18:40 81.3 °F /  27.4 °C 59.8 °F /  15.4 °C 29.94in /  1013.8hPa SSW 1.0mph /  1.6km/h 6.0mph /  9.7km/h 48% 0.00in /  0mm
18:45 80.8 °F /  27.1 °C 58.1 °F /  14.5 °C 29.94in /  1013.8hPa SSW 1.0mph /  1.6km/h 6.0mph /  9.7km/h 46% 0.00in /  0mm
18:50 80.5 °F /  26.9 °C 57.8 °F /  14.3 °C 29.93in /  1013.4hPa SSW 1.0mph /  1.6km/h 6.0mph /  9.7km/h 46% 0.00in /  0mm
18:55 80.1 °F /  26.7 °C 58.7 °F /  14.8 °C 29.93in /  1013.4hPa SW 1.0mph /  1.6km/h 5.0mph /  8km/h 48% 0.00in /  0mm
19:00 79.7 °F /  26.5 °C 60.0 °F /  15.6 °C 29.93in /  1013.4hPa Calm   5.0mph /  8km/h 51% 0.00in /  0mm
19:05 78.9 °F /  26.1 °C 58.7 °F /  14.8 °C 29.92in /  1013.1hPa SSW 1.0mph /  1.6km/h 4.0mph /  6.4km/h 50% 0.00in /  0mm
19:10 77.9 °F /  25.5 °C 59.4 °F /  15.2 °C 29.92in /  1013.1hPa Calm   4.0mph /  6.4km/h 53% 0.00in /  0mm
19:15 76.9 °F /  24.9 °C 59.0 °F /  15 °C 29.92in /  1013.1hPa SSW 1.0mph /  1.6km/h 3.0mph /  4.8km/h 54% 0.00in /  0mm
19:25 75.4 °F /  24.1 °C 59.6 °F /  15.3 °C 29.92in /  1013.1hPa Calm   1.0mph /  1.6km/h 58% 0.00in /  0mm
19:30 74.6 °F /  23.7 °C 59.8 °F /  15.4 °C 29.92in /  1013.1hPa Calm     60% 0.00in /  0mm
19:35 74.2 °F /  23.4 °C 59.9 °F /  15.5 °C 29.92in /  1013.1hPa Calm   3.0mph /  4.8km/h 61% 0.00in /  0mm
19:40 74.1 °F /  23.4 °C 60.7 °F /  15.9 °C 29.92in /  1013.1hPa Calm   3.0mph /  4.8km/h 63% 0.00in /  0mm
19:45 73.9 °F /  23.3 °C 60.5 °F /  15.8 °C 29.91in /  1012.8hPa Calm   1.0mph /  1.6km/h 63% 0.00in /  0mm
19:50 73.8 °F /  23.2 °C 60.4 °F /  15.8 °C 29.91in /  1012.8hPa Calm   1.0mph /  1.6km/h 63% 0.00in /  0mm
19:55 73.5 °F /  23.1 °C 59.7 °F /  15.4 °C 29.92in /  1013.1hPa Calm   3.0mph /  4.8km/h 62% 0.00in /  0mm
20:00 73.1 °F /  22.8 °C 60.6 °F /  15.9 °C 29.91in /  1012.8hPa Calm   4.0mph /  6.4km/h 65% 0.00in /  0mm
20:05 72.7 °F /  22.6 °C 60.3 °F /  15.7 °C 29.91in /  1012.8hPa Calm   4.0mph /  6.4km/h 65% 0.00in /  0mm
20:10 72.2 °F /  22.3 °C 59.8 °F /  15.4 °C 29.92in /  1013.1hPa Calm   1.0mph /  1.6km/h 65% 0.00in /  0mm
20:15 71.8 °F /  22.1 °C 59.4 °F /  15.2 °C 29.92in /  1013.1hPa Calm   2.0mph /  3.2km/h 65% 0.00in /  0mm
20:20 71.3 °F /  21.8 °C 59.4 °F /  15.2 °C 29.92in /  1013.1hPa Calm   2.0mph /  3.2km/h 66% 0.00in /  0mm
20:25 70.7 °F /  21.5 °C 59.2 °F /  15.1 °C 29.92in /  1013.1hPa Calm   1.0mph /  1.6km/h 67% 0.00in /  0mm
20:30 70.0 °F /  21.1 °C 59.4 °F /  15.2 °C 29.92in /  1013.1hPa Calm   1.0mph /  1.6km/h 69% 0.00in /  0mm
20:35 69.2 °F /  20.7 °C 58.6 °F /  14.8 °C 29.92in /  1013.1hPa Calm     69% 0.00in /  0mm
20:40 68.5 °F /  20.3 °C 58.3 °F /  14.6 °C 29.92in /  1013.1hPa Calm   1.0mph /  1.6km/h 70% 0.00in /  0mm
20:45 68.1 °F /  20.1 °C 58.7 °F /  14.8 °C 29.92in /  1013.1hPa Calm   1.0mph /  1.6km/h 72% 0.00in /  0mm
20:50 67.4 °F /  19.7 °C 58.1 °F /  14.5 °C 29.92in /  1013.1hPa Calm   1.0mph /  1.6km/h 72% 0.00in /  0mm
21:00 66.5 °F /  19.2 °C 58.0 °F /  14.4 °C 29.92in /  1013.1hPa Calm     74% 0.00in /  0mm
21:05 66.1 °F /  18.9 °C 58.0 °F /  14.4 °C 29.92in /  1013.1hPa Calm   1.0mph /  1.6km/h 75% 0.00in /  0mm
21:10 65.8 °F /  18.8 °C 57.7 °F /  14.3 °C 29.92in /  1013.1hPa Calm   1.0mph /  1.6km/h 75% 0.00in /  0mm
21:20 65.4 °F /  18.6 °C 57.6 °F /  14.2 °C 29.93in /  1013.4hPa SSW 1.0mph /  1.6km/h 3.0mph /  4.8km/h 76% 0.00in /  0mm
21:25 65.4 °F /  18.6 °C 58.0 °F /  14.4 °C 29.93in /  1013.4hPa Calm   3.0mph /  4.8km/h 77% 0.00in /  0mm
21:30 65.2 °F /  18.4 °C 57.8 °F /  14.3 °C 29.93in /  1013.4hPa Calm   1.0mph /  1.6km/h 77% 0.00in /  0mm
21:35 65.1 °F /  18.4 °C 57.7 °F /  14.3 °C 29.93in /  1013.4hPa Calm   1.0mph /  1.6km/h 77% 0.00in /  0mm
21:40 65.0 °F /  18.3 °C 57.6 °F /  14.2 °C 29.93in /  1013.4hPa Calm   1.0mph /  1.6km/h 77% 0.00in /  0mm
21:45 65.1 °F /  18.4 °C 57.7 °F /  14.3 °C 29.93in /  1013.4hPa Calm   3.0mph /  4.8km/h 77% 0.00in /  0mm
21:50 65.2 °F /  18.4 °C 57.5 °F /  14.2 °C 29.92in /  1013.1hPa SSW 1.0mph /  1.6km/h 3.0mph /  4.8km/h 76% 0.00in /  0mm
21:55 65.5 °F /  18.6 °C 58.1 °F /  14.5 °C 29.92in /  1013.1hPa Calm   4.0mph /  6.4km/h 77% 0.00in /  0mm
22:00 65.6 °F /  18.7 °C 57.8 °F /  14.3 °C 29.93in /  1013.4hPa Calm   4.0mph /  6.4km/h 76% 0.00in /  0mm
22:05 65.6 °F /  18.7 °C 57.8 °F /  14.3 °C 29.92in /  1013.1hPa SSW 1.0mph /  1.6km/h 4.0mph /  6.4km/h 76% 0.00in /  0mm
22:10 65.7 °F /  18.7 °C 57.9 °F /  14.4 °C 29.92in /  1013.1hPa Calm   4.0mph /  6.4km/h 76% 0.00in /  0mm
22:15 65.7 °F /  18.7 °C 57.6 °F /  14.2 °C 29.92in /  1013.1hPa SSW 1.0mph /  1.6km/h 4.0mph /  6.4km/h 75% 0.00in /  0mm
22:25 65.8 °F /  18.8 °C 57.7 °F /  14.3 °C 29.92in /  1013.1hPa Calm   6.0mph /  9.7km/h 75% 0.00in /  0mm
22:30 65.8 °F /  18.8 °C 57.7 °F /  14.3 °C 29.93in /  1013.4hPa Calm   4.0mph /  6.4km/h 75% 0.00in /  0mm
22:40 65.7 °F /  18.7 °C 57.6 °F /  14.2 °C 29.92in /  1013.1hPa SW 1.0mph /  1.6km/h 5.0mph /  8km/h 75% 0.00in /  0mm
22:45 65.7 °F /  18.7 °C 57.6 °F /  14.2 °C 29.92in /  1013.1hPa SSW 1.0mph /  1.6km/h 5.0mph /  8km/h 75% 0.00in /  0mm
22:50 65.7 °F /  18.7 °C 57.2 °F /  14 °C 29.93in /  1013.4hPa SSW 1.0mph /  1.6km/h 4.0mph /  6.4km/h 74% 0.00in /  0mm
22:55 65.8 °F /  18.8 °C 57.3 °F /  14.1 °C 29.93in /  1013.4hPa Calm   4.0mph /  6.4km/h 74% 0.00in /  0mm
23:00 65.8 °F /  18.8 °C 57.3 °F /  14.1 °C 29.92in /  1013.1hPa SSW 1.0mph /  1.6km/h 5.0mph /  8km/h 74% 0.00in /  0mm
23:05 65.8 °F /  18.8 °C 57.3 °F /  14.1 °C 29.92in /  1013.1hPa SSW 1.0mph /  1.6km/h 5.0mph /  8km/h 74% 0.00in /  0mm
23:10 65.8 °F /  18.8 °C 57.3 °F /  14.1 °C 29.92in /  1013.1hPa Calm   3.0mph /  4.8km/h 74% 0.00in /  0mm
23:15 66.0 °F /  18.9 °C 57.5 °F /  14.2 °C 29.92in /  1013.1hPa Calm   2.0mph /  3.2km/h 74% 0.00in /  0mm
23:20 66.1 °F /  18.9 °C 57.2 °F /  14 °C 29.93in /  1013.4hPa SSW 1.0mph /  1.6km/h 3.0mph /  4.8km/h 73% 0.00in /  0mm
23:25 66.2 °F /  19 °C 57.7 °F /  14.3 °C 29.93in /  1013.4hPa Calm   5.0mph /  8km/h 74% 0.00in /  0mm
23:30 66.3 °F /  19.1 °C 57.8 °F /  14.3 °C 29.92in /  1013.1hPa SSW 1.0mph /  1.6km/h 5.0mph /  8km/h 74% 0.00in /  0mm
23:35 66.6 °F /  19.2 °C 57.7 °F /  14.3 °C 29.92in /  1013.1hPa Calm   5.0mph /  8km/h 73% 0.00in /  0mm
23:40 66.8 °F /  19.3 °C 57.5 °F /  14.2 °C 29.93in /  1013.4hPa Calm   5.0mph /  8km/h 72% 0.00in /  0mm
23:45 67.1 °F /  19.5 °C 58.2 °F /  14.6 °C 29.92in /  1013.1hPa SSW 1.0mph /  1.6km/h 4.0mph /  6.4km/h 73% 0.00in /  0mm
23:50 67.2 °F /  19.6 °C 57.9 °F /  14.4 °C 29.92in /  1013.1hPa Calm   3.0mph /  4.8km/h 72% 0.00in /  0mm
23:55 67.2 °F /  19.6 °C 57.5 °F /  14.2 °C 29.92in /  1013.1hPa Calm   4.0mph /  6.4km/h 71% 0.00in /  0mm
Westford Weather
Compliments of Weather Underground

 
 
Current Radar Loop:

Copyright © WestfordWeather.net 2007-2014. All rights reserved.